createdAt,value
2017-05-25T00:00:59.055Z,0
2017-05-25T00:01:59.023Z,0
2017-05-25T00:02:58.978Z,0
2017-05-25T00:03:59.013Z,0
2017-05-25T00:04:58.985Z,0
2017-05-25T00:05:58.965Z,0
2017-05-25T00:06:58.986Z,0
2017-05-25T00:07:58.986Z,0
2017-05-25T00:08:58.971Z,0
2017-05-25T00:09:58.980Z,0
2017-05-25T00:10:58.986Z,0
2017-05-25T00:11:58.979Z,0
2017-05-25T00:12:59.007Z,0
2017-05-25T00:13:58.949Z,0
2017-05-25T00:14:58.988Z,0
2017-05-25T00:15:58.992Z,0
2017-05-25T00:16:58.948Z,0
2017-05-25T00:17:59.050Z,0
2017-05-25T00:18:58.878Z,0
2017-05-25T00:19:58.863Z,0
2017-05-25T00:20:59.081Z,0
2017-05-25T00:21:58.900Z,0
2017-05-25T00:22:58.960Z,0
2017-05-25T00:23:58.874Z,0
2017-05-25T00:24:58.903Z,0
2017-05-25T00:25:58.875Z,0
2017-05-25T00:26:58.906Z,0
2017-05-25T00:27:58.958Z,0
2017-05-25T00:28:58.964Z,0
2017-05-25T00:29:58.962Z,0
2017-05-25T00:30:58.966Z,0
2017-05-25T00:31:58.968Z,0
2017-05-25T00:32:58.970Z,0
2017-05-25T00:33:58.967Z,0
2017-05-25T00:34:58.972Z,0
2017-05-25T00:35:58.990Z,0
2017-05-25T00:36:58.966Z,0
2017-05-25T00:37:58.973Z,0
2017-05-25T00:38:58.968Z,0
2017-05-25T00:39:58.961Z,0
2017-05-25T00:40:59.025Z,0
2017-05-25T00:41:58.964Z,0
2017-05-25T00:42:59.004Z,0
2017-05-25T00:43:59.002Z,0
2017-05-25T00:44:59.012Z,0
2017-05-25T00:45:58.985Z,0
2017-05-25T00:46:59.062Z,0
2017-05-25T00:47:59.010Z,0
2017-05-25T00:48:59.025Z,0
2017-05-25T00:49:58.996Z,0
2017-05-25T00:50:59.013Z,0
2017-05-25T00:51:59.030Z,0
2017-05-25T00:52:59.005Z,0
2017-05-25T00:53:59.011Z,0
2017-05-25T00:54:58.973Z,0
2017-05-25T00:55:59.004Z,0
2017-05-25T00:56:59.012Z,0
2017-05-25T00:57:59.052Z,0
2017-05-25T00:58:58.971Z,0
2017-05-25T00:59:58.970Z,0
2017-05-25T01:00:58.926Z,0
2017-05-25T01:01:58.955Z,0
2017-05-25T01:02:59.051Z,0
2017-05-25T01:03:58.917Z,0
2017-05-25T01:04:58.954Z,0
2017-05-25T01:05:58.926Z,0
2017-05-25T01:06:58.957Z,0
2017-05-25T01:07:58.957Z,0
2017-05-25T01:08:58.923Z,0
2017-05-25T01:09:59.018Z,0
2017-05-25T01:10:59.021Z,0
2017-05-25T01:11:59.029Z,0
2017-05-25T01:12:59.043Z,0
2017-05-25T01:13:59.014Z,0
2017-05-25T01:14:59.011Z,0
2017-05-25T01:15:59.030Z,0
2017-05-25T01:16:59.008Z,0
2017-05-25T01:17:59.042Z,0
2017-05-25T01:18:59.019Z,0
2017-05-25T01:19:59.028Z,0
2017-05-25T01:20:59.013Z,0
2017-05-25T01:21:59.022Z,0
2017-05-25T01:22:59.030Z,0
2017-05-25T01:23:59.006Z,0
2017-05-25T01:24:59.020Z,0
2017-05-25T01:25:59.121Z,0
2017-05-25T01:26:58.931Z,0
2017-05-25T01:27:59.065Z,0
2017-05-25T01:28:58.928Z,0
2017-05-25T01:29:58.930Z,0
2017-05-25T01:30:58.930Z,0
2017-05-25T01:31:58.937Z,0
2017-05-25T01:32:58.932Z,0
2017-05-25T01:33:59.075Z,0
2017-05-25T01:34:58.975Z,0
2017-05-25T01:35:58.941Z,0
2017-05-25T01:36:59.031Z,0
2017-05-25T01:37:59.033Z,0
2017-05-25T01:38:59.037Z,0
2017-05-25T01:39:59.028Z,0
2017-05-25T01:40:59.020Z,0
2017-05-25T01:41:59.238Z,0
2017-05-25T01:42:58.998Z,0
2017-05-25T01:43:59.029Z,0
2017-05-25T01:44:59.059Z,0
2017-05-25T01:45:58.998Z,0
2017-05-25T01:46:59.024Z,0
2017-05-25T01:47:59.023Z,0
2017-05-25T01:48:59.021Z,0
2017-05-25T01:49:59.020Z,0
2017-05-25T01:50:59.023Z,0
2017-05-25T01:51:59.017Z,0
2017-05-25T01:52:59.021Z,0
2017-05-25T01:53:59.023Z,0
2017-05-25T01:54:59.022Z,0
2017-05-25T01:55:59.023Z,0
2017-05-25T01:56:59.009Z,0
2017-05-25T01:57:59.010Z,0
2017-05-25T01:58:59.007Z,0
2017-05-25T01:59:59.016Z,0
2017-05-25T02:00:59.012Z,0
2017-05-25T02:01:59.014Z,0
2017-05-25T02:02:59.014Z,0
2017-05-25T02:03:59.011Z,0
2017-05-25T02:04:59.027Z,0
2017-05-25T02:05:59.009Z,0
2017-05-25T02:06:59.051Z,0
2017-05-25T02:07:59.017Z,0
2017-05-25T02:08:59.015Z,0
2017-05-25T02:09:59.049Z,0
2017-05-25T02:10:59.042Z,0
2017-05-25T02:11:59.050Z,0
2017-05-25T02:12:59.032Z,0
2017-05-25T02:13:59.033Z,0
2017-05-25T02:14:59.044Z,0
2017-05-25T02:15:59.045Z,0
2017-05-25T02:16:59.020Z,0
2017-05-25T02:17:59.020Z,0
2017-05-25T02:18:59.030Z,0
2017-05-25T02:19:59.023Z,0
2017-05-25T02:20:59.023Z,0
2017-05-25T02:21:59.023Z,0
2017-05-25T02:22:59.022Z,0
2017-05-25T02:23:59.023Z,0
2017-05-25T02:24:59.024Z,0
2017-05-25T02:25:59.025Z,0
2017-05-25T02:26:59.070Z,0
2017-05-25T02:27:59.054Z,0
2017-05-25T02:28:59.043Z,0
2017-05-25T02:29:59.046Z,0
2017-05-25T02:30:59.041Z,4
2017-05-25T02:31:59.044Z,4
2017-05-25T02:32:59.041Z,4
2017-05-25T02:33:59.046Z,0
2017-05-25T02:34:59.045Z,4
2017-05-25T02:35:59.043Z,4
2017-05-25T02:36:59.047Z,4
2017-05-25T02:37:59.044Z,8
2017-05-25T02:38:59.077Z,8
2017-05-25T02:39:59.044Z,12
2017-05-25T02:40:59.051Z,12
2017-05-25T02:41:59.038Z,12
2017-05-25T02:42:59.055Z,12
2017-05-25T02:43:59.050Z,16
2017-05-25T02:44:59.033Z,16
2017-05-25T02:45:59.026Z,20
2017-05-25T02:46:59.035Z,24
2017-05-25T02:47:59.135Z,32
2017-05-25T02:48:59.063Z,32
2017-05-25T02:49:59.041Z,40
2017-05-25T02:50:59.139Z,44
2017-05-25T02:51:59.038Z,48
2017-05-25T02:52:59.038Z,56
2017-05-25T02:53:59.042Z,64
2017-05-25T02:54:59.042Z,72
2017-05-25T02:55:59.040Z,84
2017-05-25T02:56:59.060Z,96
2017-05-25T02:57:59.053Z,112
2017-05-25T02:58:59.054Z,124
2017-05-25T02:59:59.062Z,140
2017-05-25T03:00:59.058Z,164
2017-05-25T03:01:59.062Z,180
2017-05-25T03:02:59.058Z,200
2017-05-25T03:03:59.060Z,228
2017-05-25T03:04:59.062Z,248
2017-05-25T03:05:59.060Z,272
2017-05-25T03:06:59.071Z,296
2017-05-25T03:07:59.068Z,320
2017-05-25T03:08:59.063Z,352
2017-05-25T03:09:59.075Z,388
2017-05-25T03:10:59.079Z,424
2017-05-25T03:11:59.079Z,460
2017-05-25T03:12:59.084Z,500
2017-05-25T03:13:59.082Z,540
2017-05-25T03:14:59.069Z,584
2017-05-25T03:15:59.110Z,632
2017-05-25T03:16:59.054Z,692
2017-05-25T03:17:59.059Z,756
2017-05-25T03:18:59.050Z,820
2017-05-25T03:19:59.055Z,884
2017-05-25T03:20:59.053Z,964
2017-05-25T03:21:59.060Z,1036
2017-05-25T03:22:59.055Z,1112
2017-05-25T03:23:59.054Z,1188
2017-05-25T03:24:59.057Z,1264
2017-05-25T03:25:59.055Z,1336
2017-05-25T03:26:59.087Z,1412
2017-05-25T03:27:59.084Z,1492
2017-05-25T03:28:59.197Z,1580
2017-05-25T03:29:59.091Z,1668
2017-05-25T03:30:59.094Z,1752
2017-05-25T03:31:59.108Z,1832
2017-05-25T03:32:59.091Z,1916
2017-05-25T03:33:59.096Z,1980
2017-05-25T03:34:59.083Z,2016
2017-05-25T03:35:59.087Z,2076
2017-05-25T03:36:59.075Z,2164
2017-05-25T03:37:59.073Z,2272
2017-05-25T03:38:59.071Z,2416
2017-05-25T03:39:59.073Z,2576
2017-05-25T03:40:59.071Z,2696
2017-05-25T03:41:59.078Z,2800
2017-05-25T03:42:59.078Z,2892
2017-05-25T03:43:59.075Z,2944
2017-05-25T03:44:59.076Z,2988
2017-05-25T03:45:59.078Z,3008
2017-05-25T03:46:59.062Z,3068
2017-05-25T03:47:59.068Z,3320
2017-05-25T03:48:59.061Z,3644
2017-05-25T03:49:59.064Z,3868
2017-05-25T03:50:59.068Z,4028
2017-05-25T03:51:59.163Z,4180
2017-05-25T03:52:59.066Z,4316
2017-05-25T03:53:59.067Z,4464
2017-05-25T03:54:59.066Z,4604
2017-05-25T03:55:59.067Z,4732
2017-05-25T03:56:59.078Z,4820
2017-05-25T03:57:59.083Z,4896
2017-05-25T03:58:59.085Z,4916
2017-05-25T03:59:59.086Z,4948
2017-05-25T04:00:59.085Z,5120
2017-05-25T04:01:59.084Z,5256
2017-05-25T04:02:59.086Z,5360
2017-05-25T04:03:59.131Z,5404
2017-05-25T04:04:59.085Z,5328
2017-05-25T04:05:59.086Z,5456
2017-05-25T04:06:59.077Z,5568
2017-05-25T04:07:59.073Z,5672
2017-05-25T04:08:59.076Z,5684
2017-05-25T04:09:59.076Z,5624
2017-05-25T04:10:59.077Z,5604
2017-05-25T04:11:59.082Z,5504
2017-05-25T04:12:59.078Z,6140
2017-05-25T04:13:59.083Z,6724
2017-05-25T04:14:59.081Z,6936
2017-05-25T04:15:59.080Z,7132
2017-05-25T04:16:59.092Z,7324
2017-05-25T04:17:59.109Z,7488
2017-05-25T04:18:59.093Z,7660
2017-05-25T04:19:59.095Z,7764
2017-05-25T04:20:59.093Z,7944
2017-05-25T04:21:59.096Z,8080
2017-05-25T04:22:59.097Z,8228
2017-05-25T04:23:59.074Z,8396
2017-05-25T04:24:59.098Z,8532
2017-05-25T04:25:59.098Z,8668
2017-05-25T04:26:59.094Z,8824
2017-05-25T04:27:59.100Z,8984
2017-05-25T04:28:59.101Z,9124
2017-05-25T04:29:59.095Z,9260
2017-05-25T04:30:59.097Z,9448
2017-05-25T04:31:59.100Z,9636
2017-05-25T04:32:59.104Z,9812
2017-05-25T04:33:59.101Z,9988
2017-05-25T04:34:59.101Z,10152
2017-05-25T04:35:59.104Z,10332
2017-05-25T04:36:59.102Z,10520
2017-05-25T04:37:59.090Z,10736
2017-05-25T04:38:59.087Z,10892
2017-05-25T04:39:59.095Z,10980
2017-05-25T04:40:59.091Z,11112
2017-05-25T04:41:59.089Z,11292
2017-05-25T04:42:59.097Z,11572
2017-05-25T04:43:59.092Z,11888
2017-05-25T04:44:59.097Z,12164
2017-05-25T04:45:59.094Z,12348
2017-05-25T04:46:59.095Z,12632
2017-05-25T04:47:59.100Z,12968
2017-05-25T04:48:59.094Z,13468
2017-05-25T04:49:59.100Z,14216
2017-05-25T04:50:59.100Z,15076
2017-05-25T04:51:59.099Z,15556
2017-05-25T04:52:59.103Z,15684
2017-05-25T04:53:59.100Z,16100
2017-05-25T04:54:59.097Z,17120
2017-05-25T04:55:59.107Z,18092
2017-05-25T04:56:59.108Z,18924
2017-05-25T04:57:59.099Z,19748
2017-05-25T04:58:59.238Z,20736
2017-05-25T04:59:59.138Z,21280
2017-05-25T05:00:59.097Z,21760
2017-05-25T05:01:59.157Z,22304
2017-05-25T05:02:59.096Z,22912
2017-05-25T05:03:59.155Z,23456
2017-05-25T05:04:59.118Z,23968
2017-05-25T05:05:59.143Z,24544
2017-05-25T05:06:59.133Z,24704
2017-05-25T05:07:59.238Z,25056
2017-05-25T05:08:59.139Z,24768
2017-05-25T05:09:59.146Z,24704
2017-05-25T05:11:59.144Z,25312
2017-05-25T05:12:59.156Z,25984
2017-05-25T05:13:59.143Z,25760
2017-05-25T05:14:59.102Z,25184
2017-05-25T05:15:59.157Z,24384
2017-05-25T05:16:59.144Z,23776
2017-05-25T05:17:59.142Z,23008
2017-05-25T05:18:59.119Z,22016
2017-05-25T05:19:59.169Z,20928
2017-05-25T05:20:59.103Z,20256
2017-05-25T05:21:59.141Z,20352
2017-05-25T05:22:59.142Z,20384
2017-05-25T05:23:59.152Z,20320
2017-05-25T05:24:59.130Z,19576
2017-05-25T05:25:59.151Z,18864
2017-05-25T05:26:59.156Z,18804
2017-05-25T05:27:59.129Z,19240
2017-05-25T05:28:59.129Z,19384
2017-05-25T05:29:59.135Z,18880
2017-05-25T05:30:59.130Z,17928
2017-05-25T05:31:59.130Z,17376
2017-05-25T05:32:59.132Z,17432
2017-05-25T05:33:59.133Z,18228
2017-05-25T05:34:59.132Z,19328
2017-05-25T05:35:59.131Z,19420
2017-05-25T05:36:59.136Z,18440
2017-05-25T05:37:59.159Z,17692
2017-05-25T05:38:59.152Z,17704
2017-05-25T05:39:59.143Z,18112
2017-05-25T05:40:59.152Z,18888
2017-05-25T05:41:59.153Z,18564
2017-05-25T05:42:59.179Z,17044
2017-05-25T05:43:59.125Z,15676
2017-05-25T05:44:59.166Z,15052
2017-05-25T05:45:59.125Z,15256
2017-05-25T05:46:59.166Z,15784
2017-05-25T05:47:59.156Z,16096
2017-05-25T05:48:59.157Z,16372
2017-05-25T05:49:59.185Z,16236
2017-05-25T05:50:59.162Z,15360
2017-05-25T05:51:59.170Z,14520
2017-05-25T05:52:59.164Z,13976
2017-05-25T05:53:59.159Z,13512
2017-05-25T05:54:59.169Z,12772
2017-05-25T05:55:59.167Z,11888
2017-05-25T05:56:59.167Z,11212
2017-05-25T05:57:59.109Z,10616
2017-05-25T05:58:59.102Z,10284
2017-05-25T05:59:59.167Z,10368
2017-05-25T06:00:59.103Z,10380
2017-05-25T06:01:59.077Z,10132
2017-05-25T06:02:59.078Z,9908
2017-05-25T06:03:59.109Z,9932
2017-05-25T06:04:59.120Z,10144
2017-05-25T06:05:59.175Z,10476
2017-05-25T06:06:59.172Z,10992
2017-05-25T06:07:59.175Z,11364
2017-05-25T06:08:59.169Z,11476
2017-05-25T06:09:59.169Z,11576
2017-05-25T06:10:59.217Z,11760
2017-05-25T06:11:59.201Z,12052
2017-05-25T06:12:59.172Z,12080
2017-05-25T06:13:59.156Z,11836
2017-05-25T06:14:59.178Z,11804
2017-05-25T06:15:59.177Z,11952
2017-05-25T06:16:59.171Z,12340
2017-05-25T06:17:59.070Z,12792
2017-05-25T06:18:59.087Z,12860
2017-05-25T06:19:59.083Z,13100
2017-05-25T06:20:59.110Z,13748
2017-05-25T06:21:59.115Z,13704
2017-05-25T06:22:59.108Z,13412
2017-05-25T06:23:59.135Z,14328
2017-05-25T06:24:59.132Z,14816
2017-05-25T06:25:59.178Z,14692
2017-05-25T06:26:59.085Z,14704
2017-05-25T06:27:59.157Z,15344
2017-05-25T06:28:59.152Z,16104
2017-05-25T06:29:59.158Z,16992
2017-05-25T06:30:59.154Z,17660
2017-05-25T06:31:59.156Z,18568
2017-05-25T06:32:59.151Z,19284
2017-05-25T06:33:59.152Z,20576
2017-05-25T06:34:59.156Z,22336
2017-05-25T06:35:59.154Z,23712
2017-05-25T06:36:59.152Z,24704
2017-05-25T06:37:59.189Z,25888
2017-05-25T06:38:59.190Z,27360
2017-05-25T06:39:59.303Z,27936
2017-05-25T06:40:59.192Z,27552
2017-05-25T06:41:59.304Z,29440
2017-05-25T06:42:59.213Z,24736
2017-05-25T06:43:59.185Z,24384
2017-05-25T06:44:59.194Z,24800
2017-05-25T06:45:59.236Z,26592
2017-05-25T06:46:59.189Z,28032
2017-05-25T06:47:59.178Z,27200
2017-05-25T06:48:59.180Z,26560
2017-05-25T06:49:59.244Z,27776
2017-05-25T06:50:59.184Z,28352
2017-05-25T06:51:59.175Z,28416
2017-05-25T06:52:59.186Z,27712
2017-05-25T06:53:59.177Z,28064
2017-05-25T06:54:59.177Z,28512
2017-05-25T06:55:59.183Z,27040
2017-05-25T06:56:59.184Z,25792
2017-05-25T06:57:59.193Z,26176
2017-05-25T06:58:59.103Z,27872
2017-05-25T06:59:59.161Z,28576
2017-05-25T07:00:59.190Z,27904
2017-05-25T07:01:59.133Z,25792
2017-05-25T07:02:59.136Z,24416
2017-05-25T07:03:59.205Z,24768
2017-05-25T07:04:59.157Z,25984
2017-05-25T07:05:59.158Z,26816
2017-05-25T07:06:59.145Z,26752
2017-05-25T07:07:59.169Z,25408
2017-05-25T07:08:59.169Z,25248
2017-05-25T07:09:59.171Z,25408
2017-05-25T07:10:59.168Z,26048
2017-05-25T07:11:59.170Z,26528
2017-05-25T07:12:59.174Z,26688
2017-05-25T07:13:59.181Z,27584
2017-05-25T07:14:59.173Z,29088
2017-05-25T07:15:59.173Z,31328
2017-05-25T07:16:59.175Z,33504
2017-05-25T07:17:59.228Z,35392
2017-05-25T07:18:59.318Z,36320
2017-05-25T07:19:59.233Z,38080
2017-05-25T07:20:59.202Z,39264
2017-05-25T07:21:59.215Z,37728
2017-05-25T07:22:59.171Z,31264
2017-05-25T07:23:59.210Z,26720
2017-05-25T07:24:59.217Z,25568
2017-05-25T07:25:59.213Z,26816
2017-05-25T07:26:59.209Z,27392
2017-05-25T07:27:59.309Z,26688
2017-05-25T07:28:59.222Z,26080
2017-05-25T07:29:59.204Z,24352
2017-05-25T07:30:59.316Z,22816
2017-05-25T07:31:59.218Z,23616
2017-05-25T07:32:59.220Z,25056
2017-05-25T07:33:59.208Z,25184
2017-05-25T07:34:59.224Z,26336
2017-05-25T07:35:59.231Z,29792
2017-05-25T07:36:59.213Z,33440
2017-05-25T07:37:59.197Z,34240
2017-05-25T07:38:59.199Z,33344
2017-05-25T07:39:59.199Z,33984
2017-05-25T07:40:59.200Z,36160
2017-05-25T07:41:59.175Z,37728
2017-05-25T07:42:59.286Z,36512
2017-05-25T07:43:59.206Z,38016
2017-05-25T07:44:59.203Z,34976
2017-05-25T07:45:59.172Z,35392
2017-05-25T07:46:59.205Z,36992
2017-05-25T07:47:59.203Z,40224
2017-05-25T07:48:59.204Z,47072
2017-05-25T07:49:59.205Z,53888
2017-05-25T07:50:59.228Z,55712
2017-05-25T07:51:59.203Z,48096
2017-05-25T07:52:59.202Z,49056
2017-05-25T07:53:59.204Z,50368
2017-05-25T07:54:59.203Z,53728
2017-05-25T07:55:59.204Z,40512
2017-05-25T07:56:59.131Z,38400
2017-05-25T07:57:59.126Z,36096
2017-05-25T07:58:59.050Z,35424
2017-05-25T07:59:59.131Z,35968
2017-05-25T08:00:59.123Z,37760
2017-05-25T08:01:59.167Z,39680
2017-05-25T08:02:59.174Z,42016
2017-05-25T08:03:59.118Z,39040
2017-05-25T08:04:59.140Z,38336
2017-05-25T08:05:59.130Z,39072
2017-05-25T08:06:59.235Z,41344
2017-05-25T08:07:59.230Z,44256
2017-05-25T08:08:59.227Z,45920
2017-05-25T08:09:59.231Z,45600
2017-05-25T08:10:59.243Z,45568
2017-05-25T08:11:59.230Z,46144
2017-05-25T08:12:59.241Z,47648
2017-05-25T08:13:59.238Z,44352
2017-05-25T08:14:59.236Z,42720
2017-05-25T08:15:59.261Z,42048
2017-05-25T08:16:59.215Z,41216
2017-05-25T08:17:59.225Z,39840
2017-05-25T08:18:59.330Z,39552
2017-05-25T08:19:59.227Z,38752
2017-05-25T08:20:59.220Z,37824
2017-05-25T08:21:59.222Z,38848
2017-05-25T08:22:59.225Z,40640
2017-05-25T08:23:59.306Z,41216
2017-05-25T08:24:59.222Z,41952
2017-05-25T08:25:59.223Z,44992
2017-05-25T08:26:59.236Z,48960
2017-05-25T08:27:59.246Z,54080
2017-05-25T08:28:59.349Z,53472
2017-05-25T08:29:59.247Z,57824
2017-05-25T08:30:59.248Z,66720
2017-05-25T08:31:59.240Z,145696
2017-05-25T08:32:59.206Z,53408
2017-05-25T08:33:59.261Z,49568
2017-05-25T08:34:59.229Z,47424
2017-05-25T08:35:59.247Z,43104
2017-05-25T08:36:59.240Z,37760
2017-05-25T08:37:59.229Z,36768
2017-05-25T08:38:59.361Z,38368
2017-05-25T08:39:59.210Z,38016
2017-05-25T08:40:59.247Z,35296
2017-05-25T08:41:59.253Z,31424
2017-05-25T08:42:59.270Z,30112
2017-05-25T08:43:59.237Z,31328
2017-05-25T08:44:59.309Z,34560
2017-05-25T08:45:59.273Z,37632
2017-05-25T08:46:59.218Z,37888
2017-05-25T08:47:59.324Z,36992
2017-05-25T08:48:59.323Z,36288
2017-05-25T08:49:59.224Z,35296
2017-05-25T08:50:59.219Z,34720
2017-05-25T08:51:59.228Z,35232
2017-05-25T08:52:59.227Z,36480
2017-05-25T08:53:59.229Z,36896
2017-05-25T08:54:59.226Z,37184
2017-05-25T08:55:59.229Z,37920
2017-05-25T08:56:59.228Z,38016
2017-05-25T08:57:59.229Z,38528
2017-05-25T08:58:59.231Z,40480
2017-05-25T08:59:59.226Z,41216
2017-05-25T09:00:59.250Z,39136
2017-05-25T09:01:59.273Z,36896
2017-05-25T09:02:59.231Z,35552
2017-05-25T09:03:59.331Z,34528
2017-05-25T09:04:59.233Z,35744
2017-05-25T09:05:59.233Z,38016
2017-05-25T09:06:59.260Z,39744
2017-05-25T09:07:59.311Z,40640
2017-05-25T09:08:59.303Z,41280
2017-05-25T09:09:59.266Z,40960
2017-05-25T09:10:59.282Z,40160
2017-05-25T09:11:59.261Z,40192
2017-05-25T09:12:59.275Z,40576
2017-05-25T09:13:59.269Z,40288
2017-05-25T09:14:59.270Z,42880
2017-05-25T09:15:59.276Z,45952
2017-05-25T09:16:59.286Z,43072
2017-05-25T09:17:59.266Z,39296
2017-05-25T09:18:59.288Z,34592
2017-05-25T09:19:59.271Z,35616
2017-05-25T09:20:59.223Z,38528
2017-05-25T09:21:59.293Z,40800
2017-05-25T09:22:59.234Z,42400
2017-05-25T09:23:59.262Z,44032
2017-05-25T09:24:59.271Z,46272
2017-05-25T09:25:59.257Z,50048
2017-05-25T09:26:59.231Z,53568
2017-05-25T09:27:59.273Z,55808
2017-05-25T09:28:59.249Z,64832
2017-05-25T09:29:59.281Z,78272
2017-05-25T09:30:59.232Z,180000
2017-05-25T09:31:59.244Z,65888
2017-05-25T09:32:59.270Z,57920
2017-05-25T09:33:59.295Z,54624
2017-05-25T09:34:59.258Z,52448
2017-05-25T09:35:59.278Z,47488
2017-05-25T09:36:59.248Z,45280
2017-05-25T09:37:59.237Z,47680
2017-05-25T09:38:59.250Z,54336
2017-05-25T09:39:59.249Z,70144
2017-05-25T09:40:59.249Z,69888
2017-05-25T09:41:59.251Z,77312
2017-05-25T09:42:59.247Z,63552
2017-05-25T09:43:59.248Z,54656
2017-05-25T09:44:59.251Z,52288
2017-05-25T09:45:59.246Z,56096
2017-05-25T09:46:59.259Z,51744
2017-05-25T09:47:59.262Z,50304
2017-05-25T09:48:59.263Z,60928
2017-05-25T09:49:59.264Z,178816
2017-05-25T09:50:59.267Z,159616
2017-05-25T09:51:59.264Z,77312
2017-05-25T09:52:59.273Z,59232
2017-05-25T09:53:59.267Z,57184
2017-05-25T09:54:59.262Z,76224
2017-05-25T09:55:59.270Z,134336
2017-05-25T09:56:59.286Z,147584
2017-05-25T09:57:59.293Z,145888
2017-05-25T09:58:59.282Z,148448
2017-05-25T09:59:59.308Z,152928
2017-05-25T10:00:59.291Z,161216
2017-05-25T10:01:59.248Z,90656
2017-05-25T10:02:59.288Z,62304
2017-05-25T10:03:59.251Z,71776
2017-05-25T10:04:59.394Z,66048
2017-05-25T10:05:59.398Z,93056
2017-05-25T10:06:59.272Z,55456
2017-05-25T10:07:59.269Z,52352
2017-05-25T10:08:59.359Z,51136
2017-05-25T10:09:59.271Z,49856
2017-05-25T10:10:59.281Z,46624
2017-05-25T10:11:59.276Z,44352
2017-05-25T10:12:59.277Z,44928
2017-05-25T10:13:59.275Z,47136
2017-05-25T10:14:59.276Z,50688
2017-05-25T10:15:59.276Z,61792
2017-05-25T10:16:59.296Z,67072
2017-05-25T10:17:59.274Z,52736
2017-05-25T10:18:59.298Z,62176
2017-05-25T10:19:59.304Z,156896
2017-05-25T10:20:59.405Z,162112
2017-05-25T10:21:59.296Z,63136
2017-05-25T10:22:59.298Z,73056
2017-05-25T10:23:59.299Z,68288
2017-05-25T10:24:59.302Z,91136
2017-05-25T10:25:59.311Z,78688
2017-05-25T10:26:59.301Z,175936
2017-05-25T10:27:59.268Z,60832
2017-05-25T10:28:59.306Z,114816
2017-05-25T10:29:59.301Z,57568
2017-05-25T10:30:59.305Z,122528
2017-05-25T10:31:59.326Z,160960
2017-05-25T10:32:59.305Z,161376
2017-05-25T10:33:59.329Z,161856
2017-05-25T10:34:59.314Z,159488
2017-05-25T10:35:59.303Z,87040
2017-05-25T10:36:59.250Z,47328
2017-05-25T10:37:59.205Z,71360
2017-05-25T10:38:59.310Z,51232
2017-05-25T10:39:59.365Z,55712
2017-05-25T10:40:59.260Z,50880
2017-05-25T10:41:59.317Z,117856
2017-05-25T10:42:59.260Z,173984
2017-05-25T10:43:59.259Z,136960
2017-05-25T10:44:59.253Z,158656
2017-05-25T10:45:59.314Z,41024
2017-05-25T10:46:59.319Z,81184
2017-05-25T10:47:59.319Z,164608
2017-05-25T10:48:59.315Z,160160
2017-05-25T10:49:59.321Z,161472
2017-05-25T10:50:59.318Z,167328
2017-05-25T10:51:59.312Z,163520
2017-05-25T10:52:59.340Z,169024
2017-05-25T10:53:59.323Z,172928
2017-05-25T10:54:59.339Z,83424
2017-05-25T10:55:59.327Z,172704
2017-05-25T10:56:59.347Z,50176
2017-05-25T10:57:59.320Z,81280
2017-05-25T10:58:59.346Z,154560
2017-05-25T10:59:59.317Z,158016
2017-05-25T11:00:59.340Z,159776
2017-05-25T11:01:59.318Z,96224
2017-05-25T11:02:59.340Z,149632
2017-05-25T11:03:59.319Z,63840
2017-05-25T11:04:59.327Z,143296
2017-05-25T11:05:59.327Z,149728
2017-05-25T11:06:59.344Z,149216
2017-05-25T11:07:59.293Z,145632
2017-05-25T11:08:59.294Z,143552
2017-05-25T11:09:59.314Z,130080
2017-05-25T11:10:59.296Z,139808
2017-05-25T11:11:59.292Z,140608
2017-05-25T11:12:59.296Z,139872
2017-05-25T11:13:59.299Z,141696
2017-05-25T11:14:59.295Z,139488
2017-05-25T11:15:59.298Z,144128
2017-05-25T11:16:59.299Z,142048
2017-05-25T11:17:59.313Z,139360
2017-05-25T11:18:59.312Z,138400
2017-05-25T11:19:59.315Z,139232
2017-05-25T11:20:59.313Z,138336
2017-05-25T11:21:59.312Z,136544
2017-05-25T11:22:59.310Z,110880
2017-05-25T11:23:59.312Z,77024
2017-05-25T11:24:59.315Z,159872
2017-05-25T11:25:59.314Z,147072
2017-05-25T11:26:59.316Z,49792
2017-05-25T11:27:59.316Z,153984
2017-05-25T11:28:59.318Z,127616
2017-05-25T11:29:59.330Z,156224
2017-05-25T11:30:59.316Z,72480
2017-05-25T11:31:59.319Z,154720
2017-05-25T11:32:59.318Z,161440
2017-05-25T11:33:59.317Z,166112
2017-05-25T11:34:59.322Z,171168
2017-05-25T11:35:59.319Z,170176
2017-05-25T11:36:59.318Z,168096
2017-05-25T11:37:59.347Z,169536
2017-05-25T11:38:59.347Z,102528
2017-05-25T11:39:59.302Z,156128
2017-05-25T11:40:59.320Z,160128
2017-05-25T11:41:59.345Z,161792
2017-05-25T11:42:59.362Z,162944
2017-05-25T11:43:59.394Z,161440
2017-05-25T11:44:59.340Z,159136
2017-05-25T11:45:59.323Z,153312
2017-05-25T11:46:59.364Z,148992
2017-05-25T11:47:59.448Z,145088
2017-05-25T11:48:59.349Z,144736
2017-05-25T11:49:59.306Z,143936
2017-05-25T11:50:59.354Z,145152
2017-05-25T11:51:59.318Z,148384
2017-05-25T11:52:59.346Z,146912
2017-05-25T11:53:59.347Z,146656
2017-05-25T11:54:59.347Z,140320
2017-05-25T11:55:59.350Z,144512
2017-05-25T11:56:59.352Z,148608
2017-05-25T11:57:59.355Z,81184
2017-05-25T11:58:59.312Z,37024
2017-05-25T11:59:59.360Z,108096
2017-05-25T12:00:59.351Z,135040
2017-05-25T12:01:59.380Z,145536
2017-05-25T12:02:59.338Z,144800
2017-05-25T12:03:59.493Z,142272
2017-05-25T12:04:59.413Z,140640
2017-05-25T12:06:59.335Z,141088
2017-05-25T12:07:59.357Z,141856
2017-05-25T12:08:59.382Z,145120
2017-05-25T12:09:59.359Z,141248
2017-05-25T12:10:59.353Z,142848
2017-05-25T12:11:59.357Z,143456
2017-05-25T12:12:59.363Z,145984
2017-05-25T12:13:59.356Z,142784
2017-05-25T12:14:59.334Z,144768
2017-05-25T12:15:59.464Z,140736
2017-05-25T12:16:59.363Z,139072
2017-05-25T12:17:59.340Z,129952
2017-05-25T12:18:59.344Z,133632
2017-05-25T12:19:59.343Z,133984
2017-05-25T12:20:59.344Z,134560
2017-05-25T12:21:59.345Z,137376
2017-05-25T12:22:59.346Z,140512
2017-05-25T12:23:59.345Z,143264
2017-05-25T12:24:59.348Z,143392
2017-05-25T12:25:59.345Z,139744
2017-05-25T12:26:59.350Z,138560
2017-05-25T12:27:59.340Z,139424
2017-05-25T12:28:59.340Z,137184
2017-05-25T12:29:59.445Z,140896
2017-05-25T12:30:59.342Z,143744
2017-05-25T12:31:59.339Z,145376
2017-05-25T12:32:59.340Z,143936
2017-05-25T12:33:59.341Z,143520
2017-05-25T12:34:59.398Z,145280
2017-05-25T12:35:59.335Z,145280
2017-05-25T12:36:59.335Z,146752
2017-05-25T12:37:59.351Z,149760
2017-05-25T12:38:59.354Z,145376
2017-05-25T12:39:59.354Z,141792
2017-05-25T12:40:59.357Z,143296
2017-05-25T12:41:59.461Z,144768
2017-05-25T12:42:59.358Z,147072
2017-05-25T12:43:59.362Z,151008
2017-05-25T12:44:59.354Z,155552
2017-05-25T12:45:59.357Z,158752
2017-05-25T12:46:59.357Z,163616
2017-05-25T12:47:59.351Z,106016
2017-05-25T12:48:59.353Z,153312
2017-05-25T12:49:59.354Z,152480
2017-05-25T12:50:59.359Z,150976
2017-05-25T12:51:59.360Z,156000
2017-05-25T12:52:59.356Z,160000
2017-05-25T12:53:59.358Z,60384
2017-05-25T12:54:59.355Z,165920
2017-05-25T12:55:59.449Z,63200
2017-05-25T12:56:59.241Z,167840
2017-05-25T12:57:59.284Z,157120
2017-05-25T12:58:59.238Z,136896
2017-05-25T12:59:59.427Z,68320
2017-05-25T13:00:59.285Z,145248
2017-05-25T13:01:59.283Z,151552
2017-05-25T13:02:59.292Z,45952
2017-05-25T13:03:59.332Z,57664
2017-05-25T13:04:59.326Z,153184
2017-05-25T13:05:59.287Z,151328
2017-05-25T13:06:59.367Z,99008
2017-05-25T13:07:59.368Z,58816
2017-05-25T13:08:59.371Z,140256
2017-05-25T13:09:59.367Z,50624
2017-05-25T13:10:59.373Z,56704
2017-05-25T13:11:59.369Z,51616
2017-05-25T13:12:59.372Z,144768
2017-05-25T13:13:59.369Z,145920
2017-05-25T13:14:59.373Z,141888
2017-05-25T13:15:59.378Z,140256
2017-05-25T13:16:59.374Z,145088